Enter the Airport ICAO Code

Search by Airport or City

Current Weather

PANC | Ted Stevens Anchorage International Airport

Anchorage, Alaska, United States

Last Update 31 Minutes Ago

Mostly Cloudy Sky

Temperature of 08 ºC

Moderate Winds from SouthEast with Gusts

Temperature

08 ºC

Dew Point Temperature

01 ºC

Relative Humidity

61.31 %

Wind Direction

SouthEast (130º, Without Significant Variations)

Wind Velocity

19 km/h (10 kt)

Gusts

35 km/h (19 kt)

Visibility

Greater than 10 Miles

Sea Level Pressure

30.32 inHg (Inches of Mercury)

Layers of Clouds

5% to 30% of Sky Covered from 2134 mts (7000 ft) Above Ground Level.

60% to 90% of Sky Covered from 6096 mts (20000 ft) Above Ground Level.

METAR PANC 201653Z 13010G19KT 10SM FEW070 BKN200 08/01 A3032 RMK AO2 SLP270 T00830011

Weather Forecast

PANC | Ted Stevens Anchorage International Airport

Anchorage, Alaska, United States

Forecast valid for the next 25 Hours

From now on it is expected:

Mostly Cloudy Sky

Light to Moderate Winds from SouthEast

From now on it is expected 1 hour with intermittent periods of:

Moderate Winds from SouthEast with Gusts

In 7 hours it is expected the begining of:

Light to Moderate Winds from Variable Directions

Maximum Temperature

No Data

Minimum Temperature

No Data

TAF PANC 201414Z 2014/2118 14007KT P6SM FEW080 BKN150 TEMPO 2014/2018 15010G18KT FM210000 VRB05KT P6SM SCT060 BKN100